This is the latest recevied weather packets stored in our database for station/object HB9EKO-12. If no packets are shown the sender has not sent any weather packets the latest 10 day(s).
| Time | Temp. | Humidity | Pressure | Rain* | Wind** | Luminosity | Snow |
|---|---|---|---|---|---|---|---|
| 1777889230 | 21.11° C | 44% | 1015 hPa | - | - | - | - |
| 1777888325 | 21.11° C | 45% | 1015 hPa | - | - | - | - |
| 1777887420 | 20° C | 50% | 1015 hPa | - | - | - | - |
| 1777886514 | 19.44° C | 53% | 1015 hPa | - | - | - | - |
| 1777885609 | 18.89° C | 56% | 1015 hPa | - | - | - | - |
| 1777884704 | 18.33° C | 58% | 1015 hPa | - | - | - | - |
| 1777883799 | 17.22° C | 64% | 1016 hPa | - | - | - | - |
| 1777882894 | 16.11° C | 65% | 1016 hPa | - | - | - | - |
| 1777881988 | 16.11° C | 66% | 1016 hPa | - | - | - | - |
| 1777881083 | 15.56° C | 69% | 1016 hPa | - | - | - | - |
| 1777880178 | 15° C | 72% | 1016 hPa | - | - | - | - |
| 1777879273 | 15° C | 71% | 1016 hPa | - | - | - | - |
| 1777878367 | 14.44° C | 76% | 1016 hPa | - | - | - | - |
| 1777877462 | 13.33° C | 79% | 1016 hPa | - | - | - | - |
| 1777876557 | 13.33° C | 81% | 1016 hPa | - | - | - | - |
| 1777875652 | 13.33° C | 81% | 1016 hPa | - | - | - | - |
| 1777874746 | 12.78° C | 83% | 1016 hPa | - | - | - | - |
| 1777873841 | 12.78° C | 84% | 1016 hPa | - | - | - | - |
| 1777872936 | 12.78° C | 83% | 1016 hPa | - | - | - | - |
| 1777872031 | 12.22° C | 86% | 1016 hPa | - | - | - | - |
| 1777871126 | 12.22° C | 85% | 1016 hPa | - | - | - | - |
| 1777870220 | 12.22° C | 89% | 1016 hPa | - | - | - | - |
| 1777869315 | 11.11° C | 88% | 1016 hPa | - | - | - | - |
| 1777868410 | 11.11° C | 87% | 1016 hPa | - | - | - | - |
| 1777867505 | 11.11° C | 88% | 1016 hPa | - | - | - | - |
* Rain since midnight (hover to see other rain measurements)
** Current wind speed in m/s (hover to see current wind gust speed)